Bookmark and Share
Track history (hours):
 

Marseillais 6

Last reported at 2014-Apr-17 00:33 UTC. Time now 2014-Apr-17 01:04 UTC.
Position N 43°19' E 005°22'.

Length 35 m; draft 5 m.

Type: Tug. MMSI: 227016900.

NotesDate/timePositionNaut miles runAvg speedWind from/ knotsBaromVisibWave heightAir tempDewpointWater temp
2014-Apr-17 00:33N 43°19' E 005°22'0 0.0
2014-Apr-16 23:33N 43°19' E 005°22'0 0.0
2014-Apr-16 22:33N 43°19' E 005°22'0 0.0
2014-Apr-16 21:33N 43°19' E 005°22'0 0.0
2014-Apr-16 20:34N 43°19' E 005°22'0 0.0
2014-Apr-16 19:34N 43°19' E 005°22'0 0.0
2014-Apr-16 18:33N 43°19' E 005°22'0 0.0
2014-Apr-16 17:34N 43°19' E 005°22'0 0.0
2014-Apr-16 16:33N 43°19' E 005°22'0 0.0
2014-Apr-16 15:34N 43°19' E 005°22'0 0.0
2014-Apr-16 14:33N 43°19' E 005°22'0 0.0
2014-Apr-16 13:33N 43°19' E 005°22'0 0.0
2014-Apr-16 12:34N 43°19' E 005°22'0 0.0
2014-Apr-16 11:34N 43°19' E 005°22'0 0.0
2014-Apr-16 10:34N 43°19' E 005°22'0 0.0
2014-Apr-16 09:34N 43°19' E 005°22'0 0.0
2014-Apr-16 08:34N 43°19' E 005°22'0 0.0
2014-Apr-16 07:34N 43°19' E 005°22'0 0.0
2014-Apr-16 06:34N 43°19' E 005°22'0 0.0
2014-Apr-16 05:33N 43°19' E 005°22'0 0.0
2014-Apr-16 04:34N 43°19' E 005°22'0 0.0
2014-Apr-16 03:34N 43°19' E 005°22'0 0.0
2014-Apr-16 02:34N 43°19' E 005°22'0 0.0
2014-Apr-16 01:34N 43°19' E 005°22'0 0.0
2014-Apr-16 00:34N 43°19' E 005°22'0 0.0
2014-Apr-15 23:34N 43°19' E 005°22'0 0.0
2014-Apr-15 22:34N 43°19' E 005°22'0 0.0
2014-Apr-15 21:34N 43°19' E 005°22'0 0.0
2014-Apr-15 20:33N 43°19' E 005°22'0 0.0
2014-Apr-15 19:33N 43°19' E 005°22'0 0.0
2014-Apr-15 18:34N 43°19' E 005°22'0 0.0
2014-Apr-15 17:34N 43°19' E 005°22'0 0.0
2014-Apr-15 16:34N 43°19' E 005°22'0 0.0
2014-Apr-15 15:34N 43°19' E 005°22'0 0.0
2014-Apr-15 14:33N 43°19' E 005°22'0 0.0
2014-Apr-15 12:34N 43°19' E 005°22'0 0.0
2014-Apr-15 11:34N 43°19' E 005°22'0 0.0
2014-Apr-15 10:34N 43°19' E 005°22'0 0.0
2014-Apr-15 09:34N 43°19' E 005°22'0 0.0
2014-Apr-15 08:34N 43°19' E 005°22'0 0.0
2014-Apr-15 07:34N 43°19' E 005°22'0 0.0
2014-Apr-15 06:34N 43°19' E 005°22'0 0.0
2014-Apr-15 05:34N 43°19' E 005°22'0 0.0
2014-Apr-15 03:34N 43°19' E 005°22'0 0.0
2014-Apr-15 02:34N 43°19' E 005°22'0 0.0
2014-Apr-15 01:34N 43°19' E 005°22'0 0.0
2014-Apr-15 00:34N 43°19' E 005°22'0 0.0
2014-Apr-14 23:34N 43°19' E 005°22'0 0.0
2014-Apr-14 22:34N 43°19' E 005°22'0 0.0
2014-Apr-14 21:34N 43°19' E 005°22'0 0.0
2014-Apr-14 20:34N 43°19' E 005°22'0 0.0
2014-Apr-14 19:34N 43°19' E 005°22'0 0.0
2014-Apr-14 18:34N 43°19' E 005°22'0 0.0
2014-Apr-14 17:34N 43°19' E 005°22'0 0.0
2014-Apr-14 16:34N 43°19' E 005°22'0 0.0
2014-Apr-14 15:34N 43°19' E 005°22'0 0.0
2014-Apr-14 14:34N 43°19' E 005°22'0 0.0
2014-Apr-14 13:34N 43°19' E 005°22'2 1.1
2014-Apr-14 11:33N 43°21' E 005°19'0 0.0
2014-Apr-14 10:34N 43°21' E 005°19'0 0.0
2014-Apr-14 09:34N 43°21' E 005°19'0 0.0
2014-Apr-14 08:34N 43°21' E 005°19'3 2.8
2014-Apr-14 07:34N 43°20' E 005°16'1111.4
2014-Apr-14 06:34N 43°20' E 005°00'7 7.3
2014-Apr-14 05:34N 43°26' E 004°54'0 0.0
2014-Apr-13 22:33N 43°26' E 004°54'0 0.0
2014-Apr-13 21:33N 43°26' E 004°54'0 0.0
2014-Apr-13 20:34N 43°26' E 004°54'1 1.2
2014-Apr-13 19:34N 43°26' E 004°52'1 1.2
2014-Apr-13 18:33N 43°26' E 004°54'0 0.0
2014-Apr-13 17:34N 43°26' E 004°54'0 0.0
2014-Apr-13 16:34N 43°26' E 004°54'0 0.0
2014-Apr-13 15:34N 43°26' E 004°54'0 0.0
2014-Apr-13 14:34N 43°26' E 004°54'0 0.0
2014-Apr-13 13:34N 43°26' E 004°54'0 0.0
2014-Apr-13 12:33N 43°26' E 004°54'0 0.0
2014-Apr-13 11:34N 43°26' E 004°54'0 0.0
2014-Apr-13 10:34N 43°26' E 004°54'0 0.0
2014-Apr-13 09:33N 43°26' E 004°54'0 0.0
2014-Apr-13 08:33N 43°26' E 004°54'0 0.0
2014-Apr-13 07:33N 43°26' E 004°54'1 0.8
2014-Apr-13 06:33N 43°25' E 004°53'5 4.7
2014-Apr-13 05:34N 43°24' E 004°59'0 0.3
2014-Apr-13 04:33N 43°24' E 004°59'3 2.5
2014-Apr-13 03:34N 43°24' E 004°56'3 3.5
2014-Apr-13 02:34N 43°25' E 004°51'6 6.2
2014-Apr-13 01:34N 43°24' E 004°59'0 0.4
2014-Apr-13 00:34N 43°24' E 004°59'0 0.0
2014-Apr-12 23:34N 43°24' E 004°59'0 0.0
2014-Apr-12 22:34N 43°24' E 004°59'0 0.0
2014-Apr-12 21:34N 43°24' E 004°59'0 0.0
2014-Apr-12 20:34N 43°24' E 004°59'0 0.0
2014-Apr-12 19:34N 43°24' E 004°59'0 0.0
2014-Apr-12 18:34N 43°24' E 004°59'0 0.0
2014-Apr-12 17:34N 43°24' E 004°59'0 0.0
2014-Apr-12 16:34N 43°24' E 004°59'0 0.0
2014-Apr-12 15:33N 43°24' E 004°59'0 0.0
2014-Apr-12 14:34N 43°24' E 004°59'0 0.0
2014-Apr-12 13:34N 43°24' E 004°59'0 0.0
2014-Apr-12 12:34N 43°24' E 004°59'4 4.5
2014-Apr-12 11:33N 43°25' E 004°53'1 1.3
2014-Apr-12 10:33N 43°24' E 004°54'3 3.3
2014-Apr-12 09:34N 43°25' E 004°50'1 0.5
2014-Apr-12 08:34N 43°25' E 004°51'2 2.1
2014-Apr-12 07:33N 43°24' E 004°53'4 4.2
2014-Apr-12 06:34N 43°24' E 004°59'0 0.0
2014-Apr-12 05:34N 43°24' E 004°59'0 0.0
2014-Apr-12 04:34N 43°24' E 004°59'0 0.0
2014-Apr-12 03:34N 43°24' E 004°59'0 0.0
2014-Apr-12 02:34N 43°24' E 004°59'0 0.0
2014-Apr-12 01:34N 43°24' E 004°59'0 0.0
2014-Apr-12 00:34N 43°24' E 004°59'0 0.0
2014-Apr-11 23:34N 43°24' E 004°59'0 0.0
2014-Apr-11 22:34N 43°24' E 004°59'0 0.0
2014-Apr-11 21:34N 43°24' E 004°59'0 0.0
2014-Apr-11 20:33N 43°24' E 004°59'1 0.7
2014-Apr-11 19:34N 43°23' E 004°59'1 0.7
2014-Apr-11 18:34N 43°24' E 004°59'0 0.0
2014-Apr-11 17:34N 43°24' E 004°59'0 0.0
2014-Apr-11 16:34N 43°24' E 004°59'0 0.0
2014-Apr-11 15:33N 43°24' E 004°59'0 0.0
2014-Apr-11 14:34N 43°24' E 004°59'0 0.0
2014-Apr-11 13:34N 43°24' E 004°59'0 0.0
2014-Apr-11 12:34N 43°24' E 004°59'0 0.0
2014-Apr-11 11:33N 43°24' E 004°59'0 0.0
2014-Apr-11 10:34N 43°24' E 004°59'0 0.0
2014-Apr-11 09:34N 43°24' E 004°59'0 0.0
2014-Apr-11 08:33N 43°24' E 004°59'4 4.3
2014-Apr-11 07:33N 43°25' E 004°53'1 0.7
2014-Apr-11 06:33N 43°24' E 004°54'4 3.9
2014-Apr-11 05:34N 43°24' E 004°59'0 0.0
2014-Apr-11 04:34N 43°24' E 004°59'0 0.0
2014-Apr-11 03:34N 43°24' E 004°59'0 0.4
2014-Apr-11 02:34N 43°24' E 004°60'0 0.4
2014-Apr-11 01:34N 43°24' E 004°59'0 0.0
2014-Apr-11 00:34N 43°24' E 004°59'0 0.0
2014-Apr-10 23:34N 43°24' E 004°59'0 0.0
2014-Apr-10 22:34N 43°24' E 004°59'0 0.0
2014-Apr-10 21:34N 43°24' E 004°59'0 0.0
2014-Apr-10 20:33N 43°24' E 004°59'0 0.0
2014-Apr-10 19:34N 43°24' E 004°59'0 0.0
2014-Apr-10 18:34N 43°24' E 004°59'0 0.0
2014-Apr-10 17:34N 43°24' E 004°59'0 0.0
2014-Apr-10 16:33N 43°24' E 004°59'0 0.0
2014-Apr-10 15:34N 43°24' E 004°59'0 0.0
2014-Apr-10 14:34N 43°24' E 004°59'0 0.0
2014-Apr-10 13:34N 43°24' E 004°59'5 5.3
2014-Apr-10 12:34N 43°24' E 004°52'4 4.3
2014-Apr-10 11:33N 43°23' E 004°58'1 1.1
2014-Apr-10 10:33N 43°24' E 004°59'0 0.0
2014-Apr-10 09:34N 43°24' E 004°59'0 0.0
2014-Apr-10 08:33N 43°24' E 004°59'0 0.0
2014-Apr-10 07:34N 43°24' E 004°59'0 0.0
2014-Apr-10 06:34N 43°24' E 004°59'0 0.0
2014-Apr-10 05:34N 43°24' E 004°59'0 0.0
2014-Apr-10 04:33N 43°24' E 004°59'0 0.0
2014-Apr-10 03:34N 43°24' E 004°59'0 0.0
2014-Apr-10 02:33N 43°24' E 004°59'0 0.0
2014-Apr-10 01:34N 43°24' E 004°59'0 0.0
2014-Apr-10 00:34N 43°24' E 004°59'0 0.0
2014-Apr-09 23:34N 43°24' E 004°59'0 0.0
2014-Apr-09 22:34N 43°24' E 004°59'0 0.0
2014-Apr-09 21:34N 43°24' E 004°59'0 0.0
2014-Apr-09 20:34N 43°24' E 004°59'0 0.0
2014-Apr-09 19:34N 43°24' E 004°59'3 3.4
2014-Apr-09 18:34N 43°24' E 004°54'1 0.6
2014-Apr-09 17:34N 43°24' E 004°53'4 4.0
2014-Apr-09 16:33N 43°24' E 004°59'0 0.0
2014-Apr-09 15:34N 43°24' E 004°59'0 0.0
2014-Apr-09 14:34N 43°24' E 004°59'0 0.0
2014-Apr-09 13:34N 43°24' E 004°59'0 0.0
2014-Apr-09 12:34N 43°24' E 004°59'0 0.0
2014-Apr-09 11:34N 43°24' E 004°59'0 0.0
2014-Apr-09 10:34N 43°24' E 004°59'0 0.0
2014-Apr-09 09:34N 43°24' E 004°59'0 0.0
2014-Apr-09 08:34N 43°24' E 004°59'0 0.0
2014-Apr-09 07:34N 43°24' E 004°59'0 0.0
2014-Apr-09 06:34N 43°24' E 004°59'2 1.6
2014-Apr-09 05:34N 43°24' E 004°57'4 3.9
2014-Apr-09 04:34N 43°26' E 004°52'1 1.1
2014-Apr-09 03:34N 43°26' E 004°54'0 0.0
2014-Apr-09 02:33N 43°26' E 004°54'0 0.0
2014-Apr-09 01:33N 43°26' E 004°54'0 0.0
2014-Apr-09 00:34N 43°26' E 004°54'0 0.0
2014-Apr-08 23:34N 43°26' E 004°54'0 0.0
2014-Apr-08 22:33N 43°26' E 004°54'1 1.1
2014-Apr-08 21:34N 43°25' E 004°53'2 2.0
2014-Apr-08 20:34N 43°24' E 004°56'2 2.3
2014-Apr-08 19:33N 43°26' E 004°54'0 0.0
2014-Apr-08 18:34N 43°26' E 004°54'0 0.0
2014-Apr-08 17:34N 43°26' E 004°54'0 0.0
2014-Apr-08 16:34N 43°26' E 004°54'0 0.0
2014-Apr-08 15:33N 43°26' E 004°54'0 0.0
2014-Apr-08 14:34N 43°26' E 004°54'0 0.0
2014-Apr-08 13:33N 43°26' E 004°54'3 2.7
2014-Apr-08 12:33N 43°25' E 004°50'2 2.3
2014-Apr-08 11:34N 43°24' E 004°53'1 1.4
2014-Apr-08 10:34N 43°26' E 004°54'0 0.0
2014-Apr-08 09:34N 43°26' E 004°54'0 0.0
2014-Apr-08 08:34N 43°26' E 004°54'0 0.0
2014-Apr-08 07:34N 43°26' E 004°54'0 0.0
2014-Apr-08 06:33N 43°26' E 004°54'0 0.0
2014-Apr-08 05:33N 43°26' E 004°54'0 0.0
2014-Apr-08 04:33N 43°26' E 004°54'0 0.0
2014-Apr-08 03:33N 43°26' E 004°54'0 0.0
2014-Apr-08 02:33N 43°26' E 004°54'0 0.0
2014-Apr-08 01:34N 43°26' E 004°54'0 0.0
2014-Apr-08 00:34N 43°26' E 004°54'0 0.0
2014-Apr-07 23:33N 43°26' E 004°54'0 0.0
2014-Apr-07 22:34N 43°26' E 004°54'0 0.0
2014-Apr-07 21:34N 43°26' E 004°54'0 0.0
2014-Apr-07 20:34N 43°26' E 004°54'0 0.0
2014-Apr-07 19:34N 43°26' E 004°54'1 0.3
2014-Apr-07 17:34N 43°25' E 004°53'1 0.7
2014-Apr-07 16:33N 43°25' E 004°53'1 1.2
2014-Apr-07 15:34N 43°26' E 004°54'0 0.0
2014-Apr-07 14:34N 43°26' E 004°54'0 0.0
2014-Apr-07 13:34N 43°26' E 004°54'2 1.7
2014-Apr-07 12:34N 43°24' E 004°55'4 3.6
2014-Apr-07 11:34N 43°24' E 004°60'5 4.7
2014-Apr-07 10:33N 43°25' E 004°53'0 0.5
2014-Apr-07 09:33N 43°26' E 004°54'0 0.0
2014-Apr-07 08:34N 43°26' E 004°54'0 0.0
2014-Apr-07 07:34N 43°26' E 004°54'0 0.0
2014-Apr-07 06:34N 43°26' E 004°54'0 0.0
2014-Apr-07 05:33N 43°26' E 004°54'1 1.3
2014-Apr-07 04:33N 43°26' E 004°52'0 0.2
2014-Apr-07 03:34N 43°26' E 004°52'1 1.2
2014-Apr-07 02:34N 43°26' E 004°54'1 1.2
2014-Apr-07 01:33N 43°25' E 004°53'0 0.4
2014-Apr-07 00:33N 43°25' E 004°53'  

Dump ship's entire track history

sailing weather and tide predictions

Marseillais 6 — FQSJ — position and weather